LVNO2: Poteau River At Loving, OK
Data processed at Sat 11Mar2023 05:02 GMT
All information presented herein is the property of the government of the United States of America and may be revised or deleted at any time without prior notice.
Dissemination of this information without the expressed written consent of the Public Affairs Office, Tulsa District U.S. Army Corps of Engineers is strictly prohibited.
These data are gathered electronically and, as presented, have not undergone any form of quality control. These data are not guaranteed to be valid or correct.
Go to home page.
Go to station list.
Upstream stations:
Downstream station:Previous Day
Next Day
Current Day
SHEF ID: LVNO2 Poteau River at Loving, OK
STATION TYPE:
Regulating: Stage = 20.00, Flow = 4523
STAGE RIV-FLOW
ft cfs
Ccp-Rev Ccp-Rev
(US/Central)
03/10 00:00 14.18 1589
03/10 01:00 14.36 1668
03/10 02:00 14.52 1738
03/10 03:00 14.64 1791
03/10 04:00 14.73 1831
03/10 05:00 14.78 1853
03/10 06:00 14.77 1849
03/10 07:00 14.71 1822
03/10 08:00 14.63 1787
03/10 09:00 14.52 1738
03/10 10:00 14.37 1673
03/10 11:00 14.24 1615
03/10 12:00 14.08 1546
03/10 13:00 13.95 1490
03/10 14:00 13.82 1435
03/10 15:00 13.71 1388
03/10 16:00 13.60 1342
03/10 17:00 13.50 1300
03/10 18:00 13.41 1264
03/10 19:00 13.34 1235
03/10 20:00 13.26 1203
03/10 21:00 13.20 1178
03/10 22:00 13.13 1150
03/10 23:00 ---- ----